Time;durP1;ratioP1;P1;durP2;ratioP2;P2;SDS_P1;SDS_P2;PMS_P1;PMS_P2;Temp;Humidity;BMP_temperature;BMP_pressure;BME280_temperature;BME280_humidity;BME280_pressure;Samples;Min_cycle;Max_cycle;Signal;HPM_P1;HPM_P2
2023/04/25 00:00:41;;;;;;;13.48;4.03;;;;;;;;;;5051892;28;20098;-75
2023/04/25 00:03:08;;;;;;;17.00;3.80;;;;;;;;;;5059149;28;20086;-75
2023/04/25 00:05:36;;;;;;;16.60;4.47;;;;;;;;;;5037954;28;20052;-75
2023/04/25 00:08:03;;;;;;;8.95;3.67;;;;;;;;;;5056014;28;20064;-75
2023/04/25 00:10:29;;;;;;;11.25;3.60;;;;;;;;;;5037808;28;20051;-75
2023/04/25 00:12:55;;;;;;;15.60;4.13;;;;;;;;;;5040624;28;20094;-75
2023/04/25 00:15:21;;;;;;;14.18;4.00;;;;;;;;;;5060095;28;20079;-75
2023/04/25 00:17:47;;;;;;;11.88;3.90;;;;;;;;;;5058719;28;20407;-75
2023/04/25 00:20:14;;;;;;;12.38;4.05;;;;;;;;;;5053465;28;20036;-75
2023/04/25 00:22:40;;;;;;;13.48;3.97;;;;;;;;;;5055760;28;20401;-75
2023/04/25 00:25:06;;;;;;;13.05;3.75;;;;;;;;;;5060404;28;20771;-75
2023/04/25 00:27:32;;;;;;;10.95;3.65;;;;;;;;;;5069410;28;20045;-75
2023/04/25 00:29:59;;;;;;;12.57;3.95;;;;;;;;;;5041685;28;20136;-75
2023/04/25 00:32:25;;;;;;;11.13;3.63;;;;;;;;;;5066912;28;20080;-75
2023/04/25 00:34:51;;;;;;;11.77;4.07;;;;;;;;;;5063096;28;21347;-75
2023/04/25 00:37:18;;;;;;;11.02;4.13;;;;;;;;;;5044958;28;20132;-75
2023/04/25 00:39:44;;;;;;;10.40;3.58;;;;;;;;;;5048488;28;20094;-75
2023/04/25 00:42:10;;;;;;;15.98;4.45;;;;;;;;;;5036612;28;20044;-75
2023/04/25 00:44:36;;;;;;;11.55;2.90;;;;;;;;;;5044904;28;20079;-75
2023/04/25 00:47:03;;;;;;;9.48;3.45;;;;;;;;;;5070349;28;20502;-75
2023/04/25 00:49:32;;;;;;;12.68;4.00;;;;;;;;;;5066358;28;20080;-75
2023/04/25 00:51:58;;;;;;;12.02;3.60;;;;;;;;;;5060211;28;20045;-75
2023/04/25 00:54:25;;;;;;;11.13;3.63;;;;;;;;;;5044501;28;20085;-75
2023/04/25 00:56:51;;;;;;;19.00;4.05;;;;;;;;;;5062025;28;20157;-75
2023/04/25 00:59:17;;;;;;;11.50;3.75;;;;;;;;;;5065073;28;20089;-75
2023/04/25 01:01:43;;;;;;;10.95;3.38;;;;;;;;;;5034971;28;20131;-74
2023/04/25 01:04:10;;;;;;;13.75;2.90;;;;;;;;;;5066426;28;20072;-75
2023/04/25 01:06:36;;;;;;;7.07;2.55;;;;;;;;;;5045216;28;20052;-75
2023/04/25 01:09:02;;;;;;;7.63;3.10;;;;;;;;;;5041751;28;20048;-75
2023/04/25 01:11:28;;;;;;;9.80;3.00;;;;;;;;;;5045638;28;20044;-75
2023/04/25 01:13:54;;;;;;;11.10;3.05;;;;;;;;;;5058201;28;20515;-75
2023/04/25 01:16:20;;;;;;;10.18;3.42;;;;;;;;;;5037197;28;20110;-75
2023/04/25 01:18:47;;;;;;;10.15;3.03;;;;;;;;;;5065479;28;20045;-75
2023/04/25 01:21:16;;;;;;;13.10;3.80;;;;;;;;;;5062157;28;20559;-75
2023/04/25 01:23:42;;;;;;;13.65;3.15;;;;;;;;;;5067770;28;20047;-75
2023/04/25 01:26:12;;;;;;;6.88;3.33;;;;;;;;;;5063817;28;20051;-75
2023/04/25 01:28:41;;;;;;;7.13;2.83;;;;;;;;;;5047724;28;20090;-75
2023/04/25 01:31:07;;;;;;;10.55;4.22;;;;;;;;;;5036979;28;20624;-75
2023/04/25 01:33:33;;;;;;;9.00;3.40;;;;;;;;;;5062060;28;20089;-75
2023/04/25 01:35:59;;;;;;;11.60;3.80;;;;;;;;;;5062861;28;21094;-75
2023/04/25 01:38:25;;;;;;;13.38;4.15;;;;;;;;;;5068605;28;20056;-75
2023/04/25 01:40:52;;;;;;;10.25;3.63;;;;;;;;;;5057148;28;20037;-75
2023/04/25 01:43:18;;;;;;;17.35;3.40;;;;;;;;;;5059431;28;20476;-74
2023/04/25 01:45:44;;;;;;;12.98;3.63;;;;;;;;;;5063244;28;20048;-75
2023/04/25 01:48:14;;;;;;;12.00;3.15;;;;;;;;;;5064873;28;20044;-75
2023/04/25 01:50:40;;;;;;;11.10;3.35;;;;;;;;;;5042214;28;20052;-74
2023/04/25 01:53:07;;;;;;;7.18;2.88;;;;;;;;;;5047397;28;20396;-75
2023/04/25 01:55:33;;;;;;;10.07;2.63;;;;;;;;;;5047734;28;20183;-75
2023/04/25 01:58:00;;;;;;;11.82;3.63;;;;;;;;;;5041523;28;20132;-75
2023/04/25 02:00:26;;;;;;;10.35;3.63;;;;;;;;;;5034267;28;20041;-75
2023/04/25 02:02:53;;;;;;;7.00;3.10;;;;;;;;;;5037467;28;20110;-75
2023/04/25 02:05:20;;;;;;;8.23;3.33;;;;;;;;;;5037294;28;20049;-75
2023/04/25 02:07:48;;;;;;;8.27;2.85;;;;;;;;;;5040828;28;20489;-75
2023/04/25 02:10:14;;;;;;;12.05;3.47;;;;;;;;;;5046168;28;20033;-75
2023/04/25 02:12:41;;;;;;;7.57;3.05;;;;;;;;;;5045710;28;20074;-75
2023/04/25 02:15:07;;;;;;;10.48;3.70;;;;;;;;;;5037922;28;20124;-75
2023/04/25 02:17:33;;;;;;;11.15;3.20;;;;;;;;;;5043804;28;20531;-75
2023/04/25 02:19:59;;;;;;;10.10;3.88;;;;;;;;;;5046246;28;20531;-75
2023/04/25 02:22:26;;;;;;;10.00;2.92;;;;;;;;;;5038823;28;20045;-75
2023/04/25 02:24:53;;;;;;;10.52;3.58;;;;;;;;;;5042859;28;20697;-75
2023/04/25 02:27:19;;;;;;;12.55;3.47;;;;;;;;;;5038659;28;20040;-74
2023/04/25 02:29:45;;;;;;;14.43;3.45;;;;;;;;;;5043193;28;20235;-75
2023/04/25 02:32:11;;;;;;;12.13;3.13;;;;;;;;;;5030189;28;20450;-75
2023/04/25 02:34:37;;;;;;;7.40;2.72;;;;;;;;;;5037053;28;20144;-75
2023/04/25 02:37:03;;;;;;;10.93;2.80;;;;;;;;;;5038833;28;20132;-74
2023/04/25 02:39:29;;;;;;;8.68;2.83;;;;;;;;;;5049302;28;20059;-75
2023/04/25 02:41:55;;;;;;;6.50;2.63;;;;;;;;;;5039331;28;20500;-74
2023/04/25 02:44:21;;;;;;;7.55;2.38;;;;;;;;;;5039971;28;20045;-75
2023/04/25 02:46:47;;;;;;;6.97;2.53;;;;;;;;;;5043354;28;20551;-75
2023/04/25 02:49:13;;;;;;;5.88;2.60;;;;;;;;;;5043175;28;20532;-75
2023/04/25 02:51:39;;;;;;;8.43;2.63;;;;;;;;;;5040216;28;20041;-75
2023/04/25 02:54:06;;;;;;;5.95;2.55;;;;;;;;;;5036731;28;20057;-75
2023/04/25 02:56:32;;;;;;;5.82;2.40;;;;;;;;;;5032580;28;20136;-75
2023/04/25 02:58:58;;;;;;;8.95;2.88;;;;;;;;;;5033113;28;20509;-75
2023/04/25 03:01:24;;;;;;;8.05;2.47;;;;;;;;;;5043737;28;20449;-75
2023/04/25 03:03:50;;;;;;;13.02;2.90;;;;;;;;;;5046469;28;20098;-75
2023/04/25 03:06:16;;;;;;;7.80;2.65;;;;;;;;;;5045443;28;20088;-75
2023/04/25 03:08:42;;;;;;;11.27;3.03;;;;;;;;;;5036852;28;20179;-75
2023/04/25 03:11:08;;;;;;;8.45;3.10;;;;;;;;;;5037205;28;20049;-75
2023/04/25 03:13:34;;;;;;;11.10;2.58;;;;;;;;;;5044074;28;20051;-75
2023/04/25 03:16:00;;;;;;;8.32;2.72;;;;;;;;;;5043903;28;20131;-75
2023/04/25 03:18:26;;;;;;;15.18;3.53;;;;;;;;;;5037867;28;20442;-75
2023/04/25 03:20:52;;;;;;;16.55;3.05;;;;;;;;;;5050377;28;20044;-75
2023/04/25 03:23:18;;;;;;;10.43;3.00;;;;;;;;;;5039985;28;20052;-75
2023/04/25 03:25:44;;;;;;;9.55;3.08;;;;;;;;;;5040842;28;20049;-75
2023/04/25 03:28:10;;;;;;;8.63;3.00;;;;;;;;;;5032052;28;20120;-75
2023/04/25 03:30:37;;;;;;;10.35;3.28;;;;;;;;;;5035034;28;20112;-75
2023/04/25 03:33:03;;;;;;;12.15;3.28;;;;;;;;;;5046890;28;20040;-75
2023/04/25 03:35:29;;;;;;;6.10;2.60;;;;;;;;;;5044768;28;20067;-75
2023/04/25 03:37:55;;;;;;;10.40;2.97;;;;;;;;;;5041816;28;20511;-75
2023/04/25 03:40:21;;;;;;;10.93;3.30;;;;;;;;;;5039775;28;20400;-75
2023/04/25 03:42:47;;;;;;;13.85;4.38;;;;;;;;;;5043686;28;20041;-75
2023/04/25 03:45:13;;;;;;;12.57;3.28;;;;;;;;;;5045836;28;20072;-75
2023/04/25 03:47:39;;;;;;;9.80;2.65;;;;;;;;;;5038881;28;20099;-75
2023/04/25 03:50:05;;;;;;;7.10;2.60;;;;;;;;;;5034982;28;20045;-75
2023/04/25 03:52:31;;;;;;;7.55;2.50;;;;;;;;;;5035367;28;20071;-75
2023/04/25 03:54:57;;;;;;;8.25;2.53;;;;;;;;;;5039815;28;20113;-75
2023/04/25 03:57:23;;;;;;;9.23;2.80;;;;;;;;;;5061742;28;20056;-75
2023/04/25 03:59:49;;;;;;;10.10;2.83;;;;;;;;;;5069084;28;20055;-74
2023/04/25 04:02:15;;;;;;;9.00;2.90;;;;;;;;;;5059601;28;20590;-75
2023/04/25 04:04:43;;;;;;;9.57;2.92;;;;;;;;;;5062617;28;20037;-74
2023/04/25 04:07:10;;;;;;;8.25;2.90;;;;;;;;;;5055735;28;20045;-74
2023/04/25 04:09:36;;;;;;;9.23;2.67;;;;;;;;;;5066702;28;20044;-74
2023/04/25 04:12:02;;;;;;;7.57;2.75;;;;;;;;;;5064356;28;20064;-75
2023/04/25 04:14:28;;;;;;;4.88;2.95;;;;;;;;;;5053327;28;20663;-75
2023/04/25 04:16:54;;;;;;;6.15;2.40;;;;;;;;;;5047731;28;20045;-75
2023/04/25 04:19:20;;;;;;;5.32;2.10;;;;;;;;;;5061834;28;20098;-74
2023/04/25 04:21:46;;;;;;;5.80;2.40;;;;;;;;;;5058153;28;20068;-75
2023/04/25 04:24:13;;;;;;;11.10;2.50;;;;;;;;;;5053999;28;20048;-75
2023/04/25 04:26:39;;;;;;;8.10;2.70;;;;;;;;;;5059849;28;20083;-75
2023/04/25 04:29:05;;;;;;;8.38;2.67;;;;;;;;;;5040623;28;20385;-74
2023/04/25 04:31:32;;;;;;;7.10;2.20;;;;;;;;;;5033136;28;20130;-75
2023/04/25 04:33:58;;;;;;;5.50;1.92;;;;;;;;;;5034616;28;20123;-75
2023/04/25 04:36:26;;;;;;;7.32;2.20;;;;;;;;;;5068178;28;20111;-75
2023/04/25 04:38:52;;;;;;;7.57;2.30;;;;;;;;;;5062241;28;20503;-74
2023/04/25 04:41:20;;;;;;;8.57;2.33;;;;;;;;;;5052651;28;20135;-75
2023/04/25 04:43:46;;;;;;;4.88;2.20;;;;;;;;;;5035146;28;20056;-75
2023/04/25 04:46:12;;;;;;;7.60;2.38;;;;;;;;;;5058193;28;20044;-75
2023/04/25 04:48:39;;;;;;;8.13;2.40;;;;;;;;;;5066224;28;20048;-76
2023/04/25 04:51:06;;;;;;;10.05;3.03;;;;;;;;;;5050276;28;20048;-74
2023/04/25 04:53:32;;;;;;;5.90;2.47;;;;;;;;;;5075898;28;20046;-74
2023/04/25 04:56:01;;;;;;;11.07;2.38;;;;;;;;;;5049024;28;20140;-74
2023/04/25 04:58:29;;;;;;;7.72;2.67;;;;;;;;;;5021201;28;20146;-74
2023/04/25 05:00:55;;;;;;;6.40;2.70;;;;;;;;;;5025103;28;20055;-74
2023/04/25 05:03:21;;;;;;;8.13;2.92;;;;;;;;;;5044041;28;20124;-74
2023/04/25 05:05:47;;;;;;;7.18;2.90;;;;;;;;;;5042276;28;20152;-74
2023/04/25 05:08:13;;;;;;;14.18;3.10;;;;;;;;;;5047455;28;20043;-74
2023/04/25 05:10:39;;;;;;;10.18;3.00;;;;;;;;;;5047072;28;20049;-74
2023/04/25 05:13:05;;;;;;;7.63;3.17;;;;;;;;;;5049338;28;20125;-73
2023/04/25 05:15:32;;;;;;;10.02;3.42;;;;;;;;;;5039010;28;20163;-73
2023/04/25 05:17:58;;;;;;;9.43;2.95;;;;;;;;;;5033142;28;20485;-73
2023/04/25 05:20:24;;;;;;;9.35;3.22;;;;;;;;;;5027457;28;20141;-74
2023/04/25 05:22:52;;;;;;;10.85;3.15;;;;;;;;;;5037923;28;20198;-74
2023/04/25 05:25:21;;;;;;;4.88;2.55;;;;;;;;;;5043279;28;20041;-73
2023/04/25 05:27:47;;;;;;;9.85;3.08;;;;;;;;;;5045776;28;20045;-74
2023/04/25 05:30:13;;;;;;;7.78;2.45;;;;;;;;;;5015458;28;20068;-74
2023/04/25 05:32:40;;;;;;;9.13;2.60;;;;;;;;;;5022545;28;20388;-74
2023/04/25 05:35:06;;;;;;;7.05;2.55;;;;;;;;;;5037337;28;20049;-74
2023/04/25 05:37:32;;;;;;;6.88;3.00;;;;;;;;;;5021695;28;20140;-74
2023/04/25 05:39:58;;;;;;;3.45;2.25;;;;;;;;;;5024756;28;20037;-74
2023/04/25 05:42:24;;;;;;;4.68;2.45;;;;;;;;;;5027121;28;20056;-75
2023/04/25 05:44:50;;;;;;;5.80;2.20;;;;;;;;;;5021182;28;20120;-75
2023/04/25 05:47:20;;;;;;;6.68;2.58;;;;;;;;;;5035742;28;20083;-74
2023/04/25 05:49:46;;;;;;;6.10;2.78;;;;;;;;;;5036006;28;20107;-75
2023/04/25 05:52:12;;;;;;;4.95;2.88;;;;;;;;;;5019778;28;20520;-75
2023/04/25 05:54:38;;;;;;;5.80;2.60;;;;;;;;;;5042035;28;20265;-75
2023/04/25 05:57:04;;;;;;;6.88;2.88;;;;;;;;;;5042336;28;20044;-75
2023/04/25 05:59:30;;;;;;;4.93;2.58;;;;;;;;;;5046113;28;20048;-75
2023/04/25 06:01:56;;;;;;;7.40;3.03;;;;;;;;;;5041141;28;20037;-75
2023/04/25 06:04:22;;;;;;;10.13;2.90;;;;;;;;;;5044976;28;20056;-75
2023/04/25 06:06:48;;;;;;;6.80;2.53;;;;;;;;;;5060979;28;20392;-75
2023/04/25 06:09:14;;;;;;;3.60;2.13;;;;;;;;;;5067505;28;20044;-75
2023/04/25 06:11:40;;;;;;;2.45;1.90;;;;;;;;;;5062590;28;20044;-75
2023/04/25 06:14:07;;;;;;;3.30;1.70;;;;;;;;;;5068563;28;20044;-75
2023/04/25 06:16:33;;;;;;;5.05;1.95;;;;;;;;;;5062397;28;20052;-75
2023/04/25 06:18:59;;;;;;;4.22;2.08;;;;;;;;;;5057337;28;21012;-75
2023/04/25 06:21:25;;;;;;;5.75;2.30;;;;;;;;;;5063847;28;20144;-75
2023/04/25 06:23:51;;;;;;;6.97;2.28;;;;;;;;;;5053954;28;20519;-75
2023/04/25 06:26:17;;;;;;;7.35;2.97;;;;;;;;;;5041178;28;20049;-75
2023/04/25 06:28:43;;;;;;;8.02;2.70;;;;;;;;;;5060235;28;20053;-75
2023/04/25 06:31:09;;;;;;;6.13;2.53;;;;;;;;;;5045976;28;20044;-75
2023/04/25 06:33:38;;;;;;;7.47;2.35;;;;;;;;;;5043241;28;20052;-75
2023/04/25 06:36:04;;;;;;;6.70;2.40;;;;;;;;;;5072078;28;20044;-75
2023/04/25 06:38:30;;;;;;;9.38;2.90;;;;;;;;;;5050680;28;20143;-75
2023/04/25 06:40:56;;;;;;;8.07;2.60;;;;;;;;;;5038814;28;20045;-75
2023/04/25 06:43:23;;;;;;;6.88;2.25;;;;;;;;;;5034014;28;20053;-75
2023/04/25 06:45:49;;;;;;;8.55;2.40;;;;;;;;;;5040551;28;20047;-75
2023/04/25 06:48:15;;;;;;;8.10;2.55;;;;;;;;;;5057127;28;20599;-74
2023/04/25 06:50:41;;;;;;;8.52;2.83;;;;;;;;;;5050290;28;20070;-75
2023/04/25 06:53:08;;;;;;;10.55;2.80;;;;;;;;;;5052088;28;20056;-75
2023/04/25 06:55:37;;;;;;;7.90;2.90;;;;;;;;;;5067252;28;20045;-75
2023/04/25 06:58:03;;;;;;;8.45;2.67;;;;;;;;;;5060296;28;20041;-74
2023/04/25 07:00:30;;;;;;;9.32;3.00;;;;;;;;;;5046162;28;20041;-75
2023/04/25 07:02:56;;;;;;;7.93;2.58;;;;;;;;;;5062780;28;20045;-75
2023/04/25 07:05:22;;;;;;;8.27;2.65;;;;;;;;;;5053985;28;20098;-75
2023/04/25 07:07:48;;;;;;;5.75;2.42;;;;;;;;;;5063290;28;20041;-75
2023/04/25 07:10:14;;;;;;;8.30;3.03;;;;;;;;;;5046274;28;20530;-75
2023/04/25 07:12:40;;;;;;;11.43;3.08;;;;;;;;;;5049058;28;20041;-75
2023/04/25 07:15:07;;;;;;;8.48;2.63;;;;;;;;;;5046668;28;20127;-75
2023/04/25 07:17:34;;;;;;;11.48;3.05;;;;;;;;;;5060946;28;20043;-75
2023/04/25 07:20:00;;;;;;;5.25;2.00;;;;;;;;;;5065933;28;20048;-75
2023/04/25 07:22:26;;;;;;;9.43;2.22;;;;;;;;;;5061825;28;20454;-74
2023/04/25 07:24:53;;;;;;;6.07;2.45;;;;;;;;;;5053301;28;20044;-75
2023/04/25 07:27:19;;;;;;;5.03;2.45;;;;;;;;;;5071862;28;20514;-75
2023/04/25 07:29:45;;;;;;;2.83;1.90;;;;;;;;;;5065524;28;20475;-75
2023/04/25 07:32:13;;;;;;;9.27;2.55;;;;;;;;;;5068583;28;20096;-75
2023/04/25 07:34:39;;;;;;;5.78;2.00;;;;;;;;;;5042264;28;20049;-75
2023/04/25 07:37:05;;;;;;;5.22;2.00;;;;;;;;;;5050501;28;20120;-75
2023/04/25 07:39:32;;;;;;;5.35;2.17;;;;;;;;;;5068286;28;20045;-75
2023/04/25 07:42:01;;;;;;;4.30;2.33;;;;;;;;;;5048660;28;20048;-75
2023/04/25 07:44:27;;;;;;;3.08;2.13;;;;;;;;;;5065082;28;20119;-75
2023/04/25 07:46:54;;;;;;;7.30;1.90;;;;;;;;;;5041802;28;20512;-75
2023/04/25 07:49:20;;;;;;;7.05;2.40;;;;;;;;;;5070149;28;20040;-75
2023/04/25 07:51:46;;;;;;;10.73;2.78;;;;;;;;;;5069699;28;20044;-75
2023/04/25 07:54:14;;;;;;;9.15;2.90;;;;;;;;;;5068844;28;20037;-75
2023/04/25 07:56:40;;;;;;;8.13;2.28;;;;;;;;;;5063971;28;20056;-75
2023/04/25 07:59:06;;;;;;;6.82;2.50;;;;;;;;;;5068620;28;20523;-75
2023/04/25 08:01:32;;;;;;;6.30;2.38;;;;;;;;;;5044054;28;20045;-75
2023/04/25 08:03:58;;;;;;;7.70;2.70;;;;;;;;;;5048469;28;20039;-75
2023/04/25 08:06:25;;;;;;;5.68;2.42;;;;;;;;;;5069688;28;20066;-75
2023/04/25 08:08:51;;;;;;;6.65;2.42;;;;;;;;;;5056090;28;20110;-75
2023/04/25 08:11:17;;;;;;;7.57;2.47;;;;;;;;;;5069276;28;20044;-75
2023/04/25 08:13:43;;;;;;;8.70;2.50;;;;;;;;;;5068840;28;20502;-75
2023/04/25 08:16:09;;;;;;;7.13;2.40;;;;;;;;;;5065725;28;20175;-75
2023/04/25 08:18:35;;;;;;;4.68;2.58;;;;;;;;;;5073335;28;20071;-76
2023/04/25 08:21:01;;;;;;;8.75;3.35;;;;;;;;;;5066086;28;20041;-75
2023/04/25 08:23:27;;;;;;;7.20;2.60;;;;;;;;;;5066592;28;20044;-76
2023/04/25 08:25:53;;;;;;;5.57;2.20;;;;;;;;;;5070911;28;20037;-76
2023/04/25 08:28:19;;;;;;;9.23;2.28;;;;;;;;;;5052807;28;20047;-76
2023/04/25 08:30:45;;;;;;;7.50;2.80;;;;;;;;;;5070195;28;20040;-76
2023/04/25 08:33:11;;;;;;;10.70;2.60;;;;;;;;;;5068140;28;20033;-77
2023/04/25 08:35:37;;;;;;;6.93;2.70;;;;;;;;;;5064283;28;20484;-76
2023/04/25 08:38:04;;;;;;;9.98;2.80;;;;;;;;;;5055275;28;20078;-76
2023/04/25 08:40:32;;;;;;;9.32;2.40;;;;;;;;;;5054925;28;20524;-76
2023/04/25 08:42:58;;;;;;;6.65;2.20;;;;;;;;;;5074566;28;20051;-76
2023/04/25 08:45:25;;;;;;;8.25;2.72;;;;;;;;;;5070651;28;20113;-76
2023/04/25 08:47:53;;;;;;;10.45;3.08;;;;;;;;;;5044883;28;20047;-76
2023/04/25 08:50:22;;;;;;;7.75;2.55;;;;;;;;;;5055079;28;20056;-76
2023/04/25 08:52:52;;;;;;;10.20;2.50;;;;;;;;;;5074339;28;20072;-76
2023/04/25 08:55:18;;;;;;;9.68;2.80;;;;;;;;;;5054019;28;20136;-76
2023/04/25 08:57:45;;;;;;;10.35;3.60;;;;;;;;;;5073244;28;20052;-76
2023/04/25 09:00:15;;;;;;;7.40;2.28;;;;;;;;;;5051491;28;20037;-76
2023/04/25 09:02:43;;;;;;;9.05;2.25;;;;;;;;;;5040801;28;20401;-76
2023/04/25 09:05:09;;;;;;;9.77;2.30;;;;;;;;;;5045364;28;20041;-76
2023/04/25 09:07:35;;;;;;;6.82;2.40;;;;;;;;;;5073175;28;20048;-76
2023/04/25 09:10:03;;;;;;;6.20;2.13;;;;;;;;;;5070183;28;20047;-76
2023/04/25 09:12:30;;;;;;;7.05;2.53;;;;;;;;;;5050363;28;20080;-76
2023/04/25 09:15:12;;;;;;;7.13;2.50;;;;;;;;;;5064996;28;20044;-76
2023/04/25 09:17:44;;;;;;;6.28;2.00;;;;;;;;;;5037446;28;20460;-76
2023/04/25 09:20:11;;;;;;;3.53;2.10;;;;;;;;;;5036568;28;20116;-76
2023/04/25 09:22:37;;;;;;;4.75;2.20;;;;;;;;;;5051596;28;20128;-76
2023/04/25 09:25:04;;;;;;;4.90;2.20;;;;;;;;;;5055175;28;20040;-76
2023/04/25 09:27:30;;;;;;;8.30;2.47;;;;;;;;;;5056458;28;20052;-76
2023/04/25 09:30:01;;;;;;;6.07;2.55;;;;;;;;;;5072922;28;20078;-76
2023/04/25 09:32:27;;;;;;;5.90;2.80;;;;;;;;;;5073523;28;20390;-76
2023/04/25 09:34:54;;;;;;;5.07;2.00;;;;;;;;;;5053392;28;20537;-76
2023/04/25 09:37:22;;;;;;;7.43;2.00;;;;;;;;;;5048100;28;20163;-76
2023/04/25 09:39:48;;;;;;;5.70;2.75;;;;;;;;;;5071159;28;20047;-76
2023/04/25 09:42:16;;;;;;;4.03;2.20;;;;;;;;;;5049603;28;20128;-77
2023/04/25 09:44:48;;;;;;;5.60;2.33;;;;;;;;;;5070003;28;20052;-76
2023/04/25 09:47:17;;;;;;;5.73;2.63;;;;;;;;;;5046531;28;20056;-77
2023/04/25 09:49:44;;;;;;;13.43;2.72;;;;;;;;;;5070548;28;22116;-76
2023/04/25 09:52:14;;;;;;;7.55;2.88;;;;;;;;;;5041871;28;20485;-76
2023/04/25 09:54:40;;;;;;;7.18;2.10;;;;;;;;;;5072668;28;20048;-76
2023/04/25 09:57:11;;;;;;;9.75;2.72;;;;;;;;;;5042677;28;20053;-76
2023/04/25 09:59:39;;;;;;;7.22;2.50;;;;;;;;;;5069501;28;20037;-76
2023/04/25 10:02:06;;;;;;;8.02;2.35;;;;;;;;;;5053135;28;20066;-76
2023/04/25 10:04:35;;;;;;;8.55;2.60;;;;;;;;;;5055542;28;20070;-76
2023/04/25 10:07:02;;;;;;;10.20;3.15;;;;;;;;;;5072906;28;20051;-76
2023/04/25 10:09:32;;;;;;;10.80;2.50;;;;;;;;;;5066379;28;20041;-76
2023/04/25 10:11:58;;;;;;;6.85;2.88;;;;;;;;;;5052693;28;20438;-77
2023/04/25 10:14:25;;;;;;;6.25;2.50;;;;;;;;;;5042223;28;20049;-76
2023/04/25 10:16:53;;;;;;;8.48;2.03;;;;;;;;;;5053889;28;20093;-76
2023/04/25 10:19:22;;;;;;;10.07;2.50;;;;;;;;;;5072306;28;20048;-76
2023/04/25 10:22:07;;;;;;;6.00;2.00;;;;;;;;;;5055587;28;20051;-76
2023/04/25 10:24:34;;;;;;;5.03;2.20;;;;;;;;;;5049377;28;20098;-76
2023/04/25 10:27:01;;;;;;;5.72;2.22;;;;;;;;;;5070758;28;20077;-76
2023/04/25 10:29:27;;;;;;;7.03;2.58;;;;;;;;;;5055180;28;20511;-76
2023/04/25 10:31:54;;;;;;;9.00;2.40;;;;;;;;;;5050014;28;20044;-76
2023/04/25 10:34:23;;;;;;;8.23;2.40;;;;;;;;;;5051600;28;20047;-76
2023/04/25 10:36:53;;;;;;;7.82;2.40;;;;;;;;;;5072223;28;20048;-76
2023/04/25 10:39:23;;;;;;;8.65;2.45;;;;;;;;;;5054629;28;20048;-76
2023/04/25 10:41:59;;;;;;;10.90;3.15;;;;;;;;;;5051447;28;20037;-76
2023/04/25 10:44:31;;;;;;;9.13;2.97;;;;;;;;;;5048964;28;20476;-76
2023/04/25 10:46:58;;;;;;;9.07;2.90;;;;;;;;;;5067409;28;20051;-76
2023/04/25 10:49:31;;;;;;;5.57;2.45;;;;;;;;;;5053508;28;20614;-76
2023/04/25 10:51:57;;;;;;;;;;;;;;;;;;5056611;28;20047;-73
2023/04/25 10:54:25;;;;;;;3.00;2.10;;;;;;;;;;5043902;28;19924;-76
2023/04/25 10:56:53;;;;;;;6.60;2.58;;;;;;;;;;5067319;28;20061;-76
2023/04/25 10:59:20;;;;;;;7.25;2.10;;;;;;;;;;5047806;28;20049;-76
2023/04/25 11:01:47;;;;;;;5.80;2.35;;;;;;;;;;5041106;28;20040;-76
2023/04/25 11:04:23;;;;;;;9.35;2.72;;;;;;;;;;5037564;28;20033;-76
2023/04/25 11:06:56;;;;;;;7.95;2.60;;;;;;;;;;5068630;28;20032;-75
2023/04/25 11:09:24;;;;;;;13.15;2.65;;;;;;;;;;5063489;28;20043;-74
2023/04/25 11:12:00;;;;;;;7.63;2.85;;;;;;;;;;5051527;28;20506;-74
2023/04/25 11:14:27;;;;;;;7.72;3.00;;;;;;;;;;5042160;28;20052;-74
2023/04/25 11:16:56;;;;;;;7.13;2.53;;;;;;;;;;5066397;28;20048;-74
2023/04/25 11:19:23;;;;;;;9.65;2.40;;;;;;;;;;5063518;28;20056;-74
2023/04/25 11:21:49;;;;;;;6.40;2.33;;;;;;;;;;5065235;28;20086;-74
2023/04/25 11:24:17;;;;;;;6.15;2.53;;;;;;;;;;5050560;28;20075;-74
2023/04/25 11:26:43;;;;;;;9.40;2.47;;;;;;;;;;5047122;28;20048;-74
2023/04/25 11:29:09;;;;;;;7.82;2.60;;;;;;;;;;5050366;28;20052;-74
2023/04/25 11:31:36;;;;;;;7.15;2.70;;;;;;;;;;5066013;28;20052;-75
2023/04/25 11:34:02;;;;;;;4.15;2.33;;;;;;;;;;5043303;28;20060;-75
2023/04/25 11:36:28;;;;;;;8.23;2.10;;;;;;;;;;5046740;28;20048;-75
2023/04/25 11:38:54;;;;;;;5.15;2.13;;;;;;;;;;5068024;28;20036;-75
2023/04/25 11:41:21;;;;;;;6.50;2.15;;;;;;;;;;5072829;28;20112;-75
2023/04/25 11:43:48;;;;;;;8.70;2.45;;;;;;;;;;5050358;28;20048;-75
2023/04/25 11:46:14;;;;;;;6.72;2.35;;;;;;;;;;5066432;28;20047;-75
2023/04/25 11:48:41;;;;;;;6.82;2.40;;;;;;;;;;5051582;28;20053;-75
2023/04/25 11:51:07;;;;;;;7.80;2.33;;;;;;;;;;5049235;28;20044;-75
2023/04/25 11:53:33;;;;;;;7.70;1.85;;;;;;;;;;5049954;28;20442;-71
2023/04/25 11:56:00;;;;;;;3.08;2.00;;;;;;;;;;5057503;28;20514;-77
2023/04/25 11:58:26;;;;;;;3.65;1.88;;;;;;;;;;5052961;28;20083;-76
2023/04/25 12:00:52;;;;;;;5.75;2.00;;;;;;;;;;5071131;28;20040;-75
2023/04/25 12:03:19;;;;;;;5.00;2.00;;;;;;;;;;5048633;28;20488;-76
2023/04/25 12:05:45;;;;;;;6.32;2.17;;;;;;;;;;5053285;28;20045;-75
2023/04/25 12:08:11;;;;;;;11.90;2.75;;;;;;;;;;5065979;28;20048;-76
2023/04/25 12:10:39;;;;;;;5.70;2.13;;;;;;;;;;5038614;28;20041;-76
2023/04/25 12:13:18;;;;;;;7.45;2.50;;;;;;;;;;5071140;28;20060;-76
2023/04/25 12:15:44;;;;;;;5.78;2.30;;;;;;;;;;5070848;28;20048;-76
2023/04/25 12:18:10;;;;;;;8.70;2.65;;;;;;;;;;5050464;28;20052;-76
2023/04/25 12:20:36;;;;;;;12.13;2.97;;;;;;;;;;5069285;28;20067;-76
2023/04/25 12:23:06;;;;;;;8.60;2.70;;;;;;;;;;5049320;28;20124;-76
2023/04/25 12:25:35;;;;;;;8.40;2.38;;;;;;;;;;5048956;28;20384;-76
2023/04/25 12:28:19;;;;;;;6.50;2.40;;;;;;;;;;5063761;28;20186;-75
2023/04/25 12:30:54;;;;;;;6.30;3.03;;;;;;;;;;5072167;28;20504;-75
2023/04/25 12:33:21;;;;;;;7.72;2.22;;;;;;;;;;5068853;28;20492;-76
2023/04/25 12:35:47;;;;;;;4.63;2.13;;;;;;;;;;5072191;28;20041;-76
2023/04/25 12:38:21;;;;;;;5.85;3.08;;;;;;;;;;5048466;28;20474;-76
2023/04/25 12:40:47;;;;;;;4.75;2.13;;;;;;;;;;5062421;28;20465;-76
2023/04/25 12:43:13;;;;;;;4.75;2.22;;;;;;;;;;5065655;28;20083;-76
2023/04/25 12:45:39;;;;;;;5.90;2.40;;;;;;;;;;5050747;28;20086;-76
2023/04/25 12:48:05;;;;;;;4.63;2.47;;;;;;;;;;5037624;28;20036;-76
2023/04/25 12:50:31;;;;;;;6.35;2.70;;;;;;;;;;5052922;28;20106;-76
2023/04/25 12:52:57;;;;;;;5.00;2.40;;;;;;;;;;5041075;28;20056;-76
2023/04/25 12:55:23;;;;;;;7.30;2.47;;;;;;;;;;5066862;28;20071;-76
2023/04/25 12:57:49;;;;;;;7.15;2.78;;;;;;;;;;5051421;28;20055;-76
2023/04/25 13:00:18;;;;;;;9.57;2.65;;;;;;;;;;5069515;28;20044;-76
2023/04/25 13:02:44;;;;;;;6.85;2.53;;;;;;;;;;5065535;28;20052;-76
2023/04/25 13:05:11;;;;;;;9.48;2.70;;;;;;;;;;5048896;28;20108;-76
2023/04/25 13:07:37;;;;;;;9.35;2.67;;;;;;;;;;5044088;28;20127;-77
2023/04/25 13:10:03;;;;;;;4.50;2.55;;;;;;;;;;5047668;28;20437;-76
2023/04/25 13:12:29;;;;;;;6.72;3.17;;;;;;;;;;5051610;28;20049;-76
2023/04/25 13:14:55;;;;;;;5.20;2.33;;;;;;;;;;5060857;28;20048;-76
2023/04/25 13:17:21;;;;;;;4.72;2.40;;;;;;;;;;5054551;28;20064;-76
2023/04/25 13:19:47;;;;;;;8.38;2.20;;;;;;;;;;5069147;28;20043;-76
2023/04/25 13:22:15;;;;;;;9.20;2.55;;;;;;;;;;5074035;28;20431;-76
2023/04/25 13:24:41;;;;;;;4.70;2.50;;;;;;;;;;5048827;28;20064;-77
2023/04/25 13:27:07;;;;;;;4.35;2.20;;;;;;;;;;5048631;28;20072;-77
2023/04/25 13:29:35;;;;;;;4.47;2.20;;;;;;;;;;5068309;28;20099;-77
2023/04/25 13:32:01;;;;;;;4.57;2.13;;;;;;;;;;5067590;28;20093;-77
2023/04/25 13:34:27;;;;;;;5.28;2.17;;;;;;;;;;5054270;28;20048;-76
2023/04/25 13:36:53;;;;;;;6.78;2.17;;;;;;;;;;5070303;28;20426;-76
2023/04/25 13:39:19;;;;;;;9.57;2.72;;;;;;;;;;5046643;28;20041;-76
2023/04/25 13:41:45;;;;;;;6.57;2.30;;;;;;;;;;5066695;28;20132;-76
2023/04/25 13:44:11;;;;;;;6.97;2.60;;;;;;;;;;5047327;28;20076;-76
2023/04/25 13:46:38;;;;;;;5.13;1.75;;;;;;;;;;5044566;28;20072;-76
2023/04/25 13:49:04;;;;;;;3.75;1.92;;;;;;;;;;5049638;28;20041;-76
2023/04/25 13:51:30;;;;;;;6.80;2.00;;;;;;;;;;5073814;28;20053;-76
2023/04/25 13:53:56;;;;;;;5.53;2.35;;;;;;;;;;5067949;28;20037;-76
2023/04/25 13:56:23;;;;;;;2.75;2.00;;;;;;;;;;5045141;28;20049;-76
2023/04/25 13:58:51;;;;;;;3.25;1.80;;;;;;;;;;5043703;28;20045;-76
2023/04/25 14:01:17;;;;;;;3.95;2.17;;;;;;;;;;5051256;28;20250;-76
2023/04/25 14:03:43;;;;;;;5.13;2.33;;;;;;;;;;5063418;28;20373;-76
2023/04/25 14:06:10;;;;;;;4.00;2.13;;;;;;;;;;5070650;28;20511;-76
2023/04/25 14:08:36;;;;;;;4.70;2.25;;;;;;;;;;5051515;28;20386;-76
2023/04/25 14:11:03;;;;;;;9.40;2.50;;;;;;;;;;5057446;28;20055;-76
2023/04/25 14:13:29;;;;;;;4.10;2.10;;;;;;;;;;5053441;28;20040;-76
2023/04/25 14:15:55;;;;;;;3.88;2.28;;;;;;;;;;5071085;28;20446;-75
2023/04/25 14:18:21;;;;;;;6.13;2.50;;;;;;;;;;5052464;28;20052;-75
2023/04/25 14:20:47;;;;;;;7.18;2.38;;;;;;;;;;5073638;28;20139;-75
2023/04/25 14:23:13;;;;;;;4.75;2.13;;;;;;;;;;5070837;28;20475;-76
2023/04/25 14:25:41;;;;;;;4.25;2.38;;;;;;;;;;5052741;28;20056;-76
2023/04/25 14:28:07;;;;;;;8.60;2.53;;;;;;;;;;5034716;28;20060;-76
2023/04/25 14:30:33;;;;;;;6.32;2.35;;;;;;;;;;5049450;28;20177;-76
2023/04/25 14:32:59;;;;;;;5.75;2.47;;;;;;;;;;5041420;28;20048;-76
2023/04/25 14:35:25;;;;;;;5.65;2.45;;;;;;;;;;5037883;28;20068;-76
2023/04/25 14:37:52;;;;;;;8.65;2.92;;;;;;;;;;5070447;28;20409;-76